Time;durP1;ratioP1;P1;durP2;ratioP2;P2;SDS_P1;SDS_P2;PMS_P1;PMS_P2;Temp;Humidity;BMP_temperature;BMP_pressure;BME280_temperature;BME280_humidity;BME280_pressure;Samples;Min_cycle;Max_cycle;Signal;HPM_P1;HPM_P2
2024/01/26 00:01:46;;;;;;;33.70;18.50;;;9.60;99.90;;;;;;5068427;28;20053;-63
2024/01/26 00:04:13;;;;;;;31.42;18.55;;;9.60;99.90;;;;;;5067023;28;20044;-63
2024/01/26 00:06:39;;;;;;;32.70;17.05;;;9.70;99.90;;;;;;5047868;28;20049;-62
2024/01/26 00:09:12;;;;;;;30.23;17.17;;;9.20;99.90;;;;;;5047819;28;20063;-62
2024/01/26 00:11:39;;;;;;;31.05;17.38;;;9.20;99.90;;;;;;5047031;28;20056;-62
2024/01/26 00:14:07;;;;;;;30.25;17.35;;;9.20;99.90;;;;;;5047746;28;20048;-61
2024/01/26 00:16:35;;;;;;;33.45;16.90;;;9.30;99.90;;;;;;5067383;28;20074;-62
2024/01/26 00:19:03;;;;;;;35.78;18.30;;;9.60;99.90;;;;;;5068460;28;20326;-61
2024/01/26 00:21:32;;;;;;;31.35;17.00;;;9.50;99.90;;;;;;5067885;28;20044;-61
2024/01/26 00:23:59;;;;;;;31.13;17.42;;;9.70;99.90;;;;;;5067883;28;20072;-62
2024/01/26 00:26:25;;;;;;;30.15;16.83;;;9.70;99.90;;;;;;5048830;28;20049;-61
2024/01/26 00:28:51;;;;;;;32.40;17.83;;;9.30;99.90;;;;;;5047930;28;20110;-63
2024/01/26 00:31:18;;;;;;;29.55;16.33;;;9.70;99.90;;;;;;5055730;28;20052;-62
2024/01/26 00:33:45;;;;;;;29.05;16.92;;;9.70;99.90;;;;;;5068016;28;20059;-62
2024/01/26 00:36:15;;;;;;;29.75;16.67;;;9.70;99.90;;;;;;5050383;28;20071;-62
2024/01/26 00:38:42;;;;;;;29.40;17.10;;;9.30;99.90;;;;;;5047624;28;20343;-62
2024/01/26 00:41:08;;;;;;;31.00;16.80;;;9.30;99.90;;;;;;5047705;28;20571;-62
2024/01/26 00:43:34;;;;;;;27.83;16.50;;;9.70;99.90;;;;;;5047493;28;20099;-61
2024/01/26 00:46:00;;;;;;;30.90;17.65;;;9.50;99.90;;;;;;5063330;28;20373;-62
2024/01/26 00:48:27;;;;;;;33.78;19.05;;;9.30;99.90;;;;;;5071555;28;20075;-62
2024/01/26 00:50:54;;;;;;;30.52;18.05;;;9.40;99.90;;;;;;5070118;28;20044;-62
2024/01/26 00:53:21;;;;;;;32.25;18.00;;;9.70;99.90;;;;;;5071324;28;20041;-62
2024/01/26 00:55:48;;;;;;;31.35;18.50;;;9.40;99.90;;;;;;5057457;28;20072;-62
2024/01/26 00:58:14;;;;;;;34.10;19.88;;;9.50;99.90;;;;;;5051228;28;20045;-62
2024/01/26 01:00:41;;;;;;;35.10;18.25;;;9.70;99.90;;;;;;5051012;28;20329;-62
2024/01/26 01:03:07;;;;;;;31.27;18.02;;;9.40;99.90;;;;;;5051407;28;20346;-62
2024/01/26 01:05:33;;;;;;;28.60;17.13;;;9.40;99.90;;;;;;5060416;28;20449;-63
2024/01/26 01:08:00;;;;;;;30.80;16.92;;;9.80;99.90;;;;;;5071082;28;20110;-62
2024/01/26 01:10:26;;;;;;;31.52;17.70;;;9.80;99.90;;;;;;5071064;28;20457;-62
2024/01/26 01:12:52;;;;;;;27.88;15.68;;;9.50;99.90;;;;;;5071142;28;20361;-62
2024/01/26 01:15:19;;;;;;;28.00;15.75;;;9.30;99.90;;;;;;5061344;28;20059;-61
2024/01/26 01:17:46;;;;;;;28.45;16.08;;;9.50;99.90;;;;;;5052384;28;20499;-62
2024/01/26 01:20:13;;;;;;;30.20;16.40;;;9.80;99.90;;;;;;5070105;28;20460;-61
2024/01/26 01:22:41;;;;;;;28.40;15.98;;;9.80;99.90;;;;;;5070968;28;20053;-62
2024/01/26 01:25:09;;;;;;;27.05;15.23;;;9.40;99.90;;;;;;5062975;28;20067;-62
2024/01/26 01:27:38;;;;;;;27.15;15.38;;;9.40;99.90;;;;;;5051497;28;20041;-61
2024/01/26 01:30:09;;;;;;;26.08;15.20;;;9.60;99.90;;;;;;5049917;28;20420;-61
2024/01/26 01:32:35;;;;;;;27.30;15.48;;;9.40;99.90;;;;;;5050182;28;20063;-61
2024/01/26 01:35:02;;;;;;;26.45;13.98;;;9.40;99.90;;;;;;5058235;28;20105;-63
2024/01/26 01:37:28;;;;;;;24.98;15.20;;;9.70;99.90;;;;;;5070662;28;20044;-62
2024/01/26 01:39:55;;;;;;;24.10;13.80;;;9.80;99.90;;;;;;5073135;28;20063;-63
2024/01/26 01:42:21;;;;;;;23.95;13.38;;;9.50;99.90;;;;;;5072115;28;20041;-62
2024/01/26 01:44:47;;;;;;;24.77;15.00;;;9.80;99.90;;;;;;5068099;28;20041;-61
2024/01/26 01:47:15;;;;;;;21.42;13.15;;;9.60;99.90;;;;;;5053402;28;20382;-62
2024/01/26 01:49:43;;;;;;;21.42;13.50;;;9.60;99.90;;;;;;5052030;28;20053;-62
2024/01/26 01:52:20;;;;;;;25.90;14.13;;;9.80;99.90;;;;;;5051469;28;20449;-62
2024/01/26 01:54:51;;;;;;;21.63;13.25;;;9.40;99.90;;;;;;5056707;28;20060;-62
2024/01/26 01:57:20;;;;;;;21.40;13.07;;;9.50;99.90;;;;;;5072788;28;20041;-63
2024/01/26 01:59:46;;;;;;;23.70;13.63;;;9.50;99.90;;;;;;5073143;28;20040;-62
2024/01/26 02:02:23;;;;;;;22.27;13.57;;;9.80;99.90;;;;;;5071572;28;20044;-62
2024/01/26 02:04:50;;;;;;;21.30;12.40;;;9.50;99.90;;;;;;5066864;28;20458;-63
2024/01/26 02:07:17;;;;;;;22.92;13.63;;;9.70;99.90;;;;;;5050860;28;20060;-62
2024/01/26 02:09:43;;;;;;;20.92;13.13;;;9.70;99.90;;;;;;5050812;28;20057;-62
2024/01/26 02:12:10;;;;;;;19.25;12.32;;;9.70;99.90;;;;;;5050839;28;20386;-62
2024/01/26 02:14:36;;;;;;;18.55;12.90;;;9.50;99.90;;;;;;5052948;28;20462;-62
2024/01/26 02:17:02;;;;;;;20.20;12.43;;;9.60;99.90;;;;;;5070653;28;20048;-61
2024/01/26 02:19:32;;;;;;;19.90;12.55;;;9.50;99.90;;;;;;5070612;28;20075;-62
2024/01/26 02:21:58;;;;;;;20.17;12.65;;;9.60;99.90;;;;;;5070548;28;20139;-62
2024/01/26 02:24:24;;;;;;;20.85;13.55;;;9.70;99.90;;;;;;5069044;28;20052;-63
2024/01/26 02:26:52;;;;;;;19.98;12.93;;;9.50;99.90;;;;;;5050440;28;20065;-62
2024/01/26 02:29:18;;;;;;;17.15;11.77;;;9.80;99.90;;;;;;5049326;28;20057;-62
2024/01/26 02:31:44;;;;;;;19.65;12.43;;;9.50;99.90;;;;;;5057714;28;20065;-65
2024/01/26 02:34:13;;;;;;;20.10;12.52;;;9.90;99.90;;;;;;5064696;28;20053;-63
2024/01/26 02:36:39;;;;;;;19.95;13.13;;;9.90;99.90;;;;;;5050699;28;20048;-62
2024/01/26 02:39:06;;;;;;;17.80;11.90;;;9.60;99.90;;;;;;5050441;28;20175;-63
2024/01/26 02:41:35;;;;;;;18.77;12.68;;;9.50;99.90;;;;;;5050719;28;20049;-62
2024/01/26 02:44:02;;;;;;;20.02;12.55;;;9.80;99.90;;;;;;5048324;28;20327;-61
2024/01/26 02:46:28;;;;;;;18.30;11.85;;;9.50;99.90;;;;;;5068107;28;20067;-61
2024/01/26 02:48:58;;;;;;;18.17;12.13;;;9.50;99.90;;;;;;5066682;28;20044;-62
2024/01/26 02:51:24;;;;;;;17.85;12.10;;;10.00;99.90;;;;;;5067692;28;20044;-62
2024/01/26 02:53:52;;;;;;;18.15;11.75;;;9.60;99.90;;;;;;5067569;28;20040;-63
2024/01/26 02:56:19;;;;;;;20.88;13.55;;;9.50;99.90;;;;;;5051309;28;20068;-63
2024/01/26 02:58:45;;;;;;;18.98;11.48;;;9.80;99.90;;;;;;5049308;28;20045;-62
2024/01/26 03:01:12;;;;;;;20.65;13.27;;;9.70;99.90;;;;;;5048962;28;20366;-63
2024/01/26 03:03:38;;;;;;;17.10;11.48;;;9.60;99.90;;;;;;5049032;28;20060;-62
2024/01/26 03:06:05;;;;;;;21.60;11.88;;;10.00;99.90;;;;;;5062868;28;20095;-64
2024/01/26 03:08:34;;;;;;;17.33;12.20;;;10.00;99.90;;;;;;5068121;28;20221;-63
2024/01/26 03:11:03;;;;;;;19.52;11.45;;;9.90;99.90;;;;;;5069304;28;20048;-62
2024/01/26 03:13:29;;;;;;;15.82;10.55;;;10.00;99.90;;;;;;5068506;28;20052;-63
2024/01/26 03:15:57;;;;;;;17.85;11.73;;;10.00;99.90;;;;;;5055200;28;20107;-62
2024/01/26 03:18:23;;;;;;;18.00;10.73;;;9.60;99.90;;;;;;5048760;28;20048;-63
2024/01/26 03:20:49;;;;;;;19.05;12.35;;;9.70;99.90;;;;;;5048793;28;20256;-63
2024/01/26 03:23:15;;;;;;;17.67;11.70;;;9.70;99.90;;;;;;5048657;28;20505;-63
2024/01/26 03:25:42;;;;;;;18.95;12.40;;;9.80;99.90;;;;;;5059427;28;20044;-62
2024/01/26 03:28:08;;;;;;;19.58;13.20;;;10.00;99.90;;;;;;5068705;28;20048;-61
2024/01/26 03:30:34;;;;;;;20.23;13.35;;;10.10;99.90;;;;;;5068423;28;20078;-61
2024/01/26 03:33:01;;;;;;;20.23;12.10;;;10.10;99.90;;;;;;5068552;28;20060;-62
2024/01/26 03:35:27;;;;;;;17.90;11.18;;;9.90;99.90;;;;;;5058693;28;20376;-62
2024/01/26 03:37:53;;;;;;;19.13;11.00;;;9.80;99.90;;;;;;5048135;28;20055;-62
2024/01/26 03:40:21;;;;;;;19.58;11.38;;;10.10;99.90;;;;;;5048964;28;20045;-61
2024/01/26 03:42:47;;;;;;;16.73;11.60;;;10.10;99.90;;;;;;5048526;28;20362;-63
2024/01/26 03:45:14;;;;;;;17.08;11.13;;;10.00;99.90;;;;;;5048189;28;20045;-63
2024/01/26 03:47:40;;;;;;;21.52;11.50;;;10.20;99.90;;;;;;5048433;28;20143;-62
2024/01/26 03:50:06;;;;;;;19.83;10.63;;;10.20;99.90;;;;;;5048391;28;20049;-61
2024/01/26 03:52:33;;;;;;;19.40;12.55;;;10.30;99.90;;;;;;5047620;28;20064;-63
2024/01/26 03:54:59;;;;;;;15.77;10.20;;;10.30;99.90;;;;;;5051309;28;20041;-62
2024/01/26 03:57:26;;;;;;;17.45;10.98;;;9.90;99.90;;;;;;5067884;28;20044;-62
2024/01/26 03:59:52;;;;;;;17.88;11.45;;;9.90;99.90;;;;;;5067280;28;20044;-62
2024/01/26 04:02:18;;;;;;;16.23;10.95;;;10.40;99.90;;;;;;5068179;28;20059;-63
2024/01/26 04:04:45;;;;;;;18.00;11.00;;;9.80;99.90;;;;;;5064929;28;20301;-63
2024/01/26 04:07:11;;;;;;;17.13;11.65;;;10.10;99.90;;;;;;5046865;28;20346;-62
2024/01/26 04:09:38;;;;;;;15.60;10.73;;;10.40;99.90;;;;;;5047668;28;20100;-62
2024/01/26 04:12:05;;;;;;;15.93;10.55;;;10.40;99.90;;;;;;5049313;28;20045;-62
2024/01/26 04:14:31;;;;;;;14.35;10.32;;;10.00;99.90;;;;;;5049502;28;20053;-62
2024/01/26 04:16:57;;;;;;;18.08;11.77;;;10.00;99.90;;;;;;5069420;28;20081;-62
2024/01/26 04:19:23;;;;;;;17.20;12.07;;;10.20;99.90;;;;;;5067797;28;20051;-62
2024/01/26 04:21:51;;;;;;;15.82;10.95;;;10.50;99.90;;;;;;5071417;28;20045;-63
2024/01/26 04:24:18;;;;;;;17.23;11.52;;;10.40;99.90;;;;;;5072231;28;20460;-63
2024/01/26 04:26:45;;;;;;;18.05;13.88;;;10.30;99.90;;;;;;5052399;28;20055;-62
2024/01/26 04:29:11;;;;;;;17.70;12.93;;;10.10;99.90;;;;;;5052608;28;20045;-63
2024/01/26 04:31:44;;;;;;;18.15;13.10;;;10.10;99.90;;;;;;5051142;28;20087;-63
2024/01/26 04:34:10;;;;;;;20.20;12.73;;;10.50;99.90;;;;;;5051752;28;20144;-63
2024/01/26 04:36:37;;;;;;;19.13;13.15;;;10.20;99.90;;;;;;5070094;28;20071;-62
2024/01/26 04:39:03;;;;;;;19.58;14.27;;;10.20;99.90;;;;;;5071755;28;20045;-63
2024/01/26 04:41:29;;;;;;;18.80;12.82;;;10.60;99.90;;;;;;5071534;28;20423;-62
2024/01/26 04:43:56;;;;;;;22.42;14.25;;;10.40;99.90;;;;;;5071269;28;20048;-62
2024/01/26 04:46:22;;;;;;;22.20;14.07;;;10.60;99.90;;;;;;5055011;28;20053;-61
2024/01/26 04:48:49;;;;;;;21.25;14.25;;;10.50;99.90;;;;;;5051747;28;20041;-62
2024/01/26 04:51:15;;;;;;;19.13;13.23;;;10.40;99.90;;;;;;5051024;28;20409;-63
2024/01/26 04:53:41;;;;;;;21.55;14.15;;;10.70;99.90;;;;;;5052083;28;20320;-62
2024/01/26 04:56:11;;;;;;;20.00;14.57;;;10.70;99.90;;;;;;5051220;28;20063;-62
2024/01/26 04:58:38;;;;;;;23.38;15.68;;;10.70;99.90;;;;;;5054015;28;20452;-62
2024/01/26 05:01:04;;;;;;;18.92;13.73;;;10.80;99.90;;;;;;5052533;28;20497;-61
2024/01/26 05:03:31;;;;;;;20.63;14.40;;;10.70;99.90;;;;;;5052720;28;20045;-62
2024/01/26 05:05:57;;;;;;;20.55;14.80;;;10.90;99.90;;;;;;5064717;28;20051;-62
2024/01/26 05:08:23;;;;;;;19.83;13.73;;;10.50;99.90;;;;;;5071365;28;20349;-62
2024/01/26 05:10:49;;;;;;;19.15;14.10;;;10.50;99.90;;;;;;5072569;28;20372;-62
2024/01/26 05:13:16;;;;;;;18.92;13.55;;;10.80;99.90;;;;;;5072658;28;20295;-62
2024/01/26 05:15:42;;;;;;;19.27;13.48;;;10.90;99.90;;;;;;5061961;28;20049;-62
2024/01/26 05:18:08;;;;;;;19.40;13.02;;;10.60;99.90;;;;;;5052418;28;20400;-63
2024/01/26 05:20:35;;;;;;;21.65;14.45;;;10.60;99.90;;;;;;5051287;28;20045;-63
2024/01/26 05:23:01;;;;;;;20.13;13.93;;;10.50;99.90;;;;;;5051762;28;20060;-62
2024/01/26 05:25:27;;;;;;;24.10;14.10;;;10.70;99.90;;;;;;5059227;28;20049;-62
2024/01/26 05:27:53;;;;;;;18.52;13.05;;;10.40;99.90;;;;;;5072006;28;20048;-62
2024/01/26 05:30:20;;;;;;;19.50;14.70;;;10.60;99.90;;;;;;5072023;28;20080;-62
2024/01/26 05:32:46;;;;;;;20.60;14.23;;;10.90;99.90;;;;;;5071400;28;20342;-61
2024/01/26 05:35:12;;;;;;;22.63;14.85;;;10.50;99.90;;;;;;5065267;28;20063;-62
2024/01/26 05:37:39;;;;;;;18.75;13.82;;;10.70;99.90;;;;;;5050607;28;20364;-62
2024/01/26 05:40:06;;;;;;;19.67;14.50;;;10.70;99.90;;;;;;5051388;28;20330;-61
2024/01/26 05:42:32;;;;;;;21.05;13.55;;;10.50;99.90;;;;;;5050550;28;20518;-62
2024/01/26 05:44:59;;;;;;;19.48;13.32;;;10.70;99.90;;;;;;5055093;28;20349;-61
2024/01/26 05:47:25;;;;;;;19.85;13.82;;;10.60;99.90;;;;;;5071728;28;20048;-63
2024/01/26 05:49:51;;;;;;;22.63;13.35;;;10.40;99.90;;;;;;5071617;28;20055;-62
2024/01/26 05:52:18;;;;;;;19.48;12.73;;;10.90;99.90;;;;;;5068076;28;20040;-62
2024/01/26 05:54:44;;;;;;;20.77;12.60;;;10.70;99.90;;;;;;5051610;28;20434;-62
2024/01/26 05:57:10;;;;;;;18.45;12.63;;;10.60;99.90;;;;;;5071242;28;20052;-63
2024/01/26 05:59:37;;;;;;;18.70;12.27;;;10.80;99.90;;;;;;5070469;28;20107;-62
2024/01/26 06:02:05;;;;;;;18.08;12.05;;;10.40;99.90;;;;;;5071662;28;20044;-62
2024/01/26 06:04:31;;;;;;;18.48;12.77;;;10.70;99.90;;;;;;5070922;28;20063;-62
2024/01/26 06:06:59;;;;;;;16.77;11.68;;;10.50;99.90;;;;;;5050393;28;20064;-62
2024/01/26 06:09:25;;;;;;;17.42;12.10;;;10.90;99.90;;;;;;5050922;28;20044;-62
2024/01/26 06:11:51;;;;;;;17.45;12.13;;;10.50;99.90;;;;;;5051332;28;20049;-62
2024/01/26 06:14:18;;;;;;;16.98;10.95;;;10.80;99.90;;;;;;5050837;28;20136;-63
2024/01/26 06:16:48;;;;;;;14.98;10.68;;;10.90;99.90;;;;;;5068215;28;20151;-62
2024/01/26 06:19:14;;;;;;;13.30;9.90;;;10.70;99.90;;;;;;5071447;28;20066;-62
2024/01/26 06:21:40;;;;;;;15.73;10.32;;;10.60;99.90;;;;;;5068173;28;20060;-62
2024/01/26 06:24:07;;;;;;;14.48;10.57;;;11.00;99.90;;;;;;5069597;28;20066;-62
2024/01/26 06:26:33;;;;;;;16.20;11.30;;;11.00;99.90;;;;;;5069164;28;20055;-62
2024/01/26 06:28:59;;;;;;;13.40;10.68;;;10.70;99.90;;;;;;5069759;28;20114;-62
2024/01/26 06:31:26;;;;;;;13.30;9.18;;;10.80;99.90;;;;;;5067932;28;20375;-64
2024/01/26 06:33:53;;;;;;;12.80;9.90;;;11.00;99.90;;;;;;5069678;28;20060;-62
2024/01/26 06:36:19;;;;;;;12.85;10.13;;;10.60;99.90;;;;;;5065425;28;20064;-63
2024/01/26 06:38:45;;;;;;;11.80;8.80;;;10.90;99.90;;;;;;5069498;28;20048;-62
2024/01/26 06:41:12;;;;;;;14.20;10.07;;;10.70;99.90;;;;;;5067904;28;20052;-62
2024/01/26 06:43:38;;;;;;;11.75;8.60;;;11.10;99.90;;;;;;5067794;28;20049;-62
2024/01/26 06:46:04;;;;;;;10.98;8.40;;;11.00;99.90;;;;;;5066283;28;20044;-62
2024/01/26 06:48:30;;;;;;;12.10;8.98;;;10.70;99.90;;;;;;5067224;28;20163;-62
2024/01/26 06:50:57;;;;;;;14.85;8.57;;;10.80;99.90;;;;;;5067908;28;20056;-62
2024/01/26 06:53:23;;;;;;;12.50;7.50;;;10.80;99.90;;;;;;5069083;28;20163;-62
2024/01/26 06:55:49;;;;;;;12.02;8.02;;;11.00;99.90;;;;;;5066554;28;20051;-63
2024/01/26 06:58:17;;;;;;;12.23;8.10;;;10.70;99.90;;;;;;5067885;28;20040;-63
2024/01/26 07:00:44;;;;;;;11.63;7.85;;;11.00;99.90;;;;;;5070303;28;20040;-62
2024/01/26 07:03:11;;;;;;;9.90;7.18;;;10.50;99.90;;;;;;5070444;28;20052;-62
2024/01/26 07:05:37;;;;;;;10.05;7.55;;;11.00;99.90;;;;;;5068405;28;20452;-62
2024/01/26 07:08:04;;;;;;;11.23;6.55;;;11.00;99.90;;;;;;5069737;28;20504;-61
2024/01/26 07:10:30;;;;;;;9.68;7.00;;;10.60;99.90;;;;;;5068985;28;20055;-62
2024/01/26 07:12:56;;;;;;;8.45;5.90;;;11.10;99.90;;;;;;5067500;28;20308;-62
2024/01/26 07:15:22;;;;;;;8.40;6.38;;;10.70;99.90;;;;;;5066560;28;20730;-61
2024/01/26 07:17:49;;;;;;;7.50;6.10;;;10.70;99.90;;;;;;5068020;28;20067;-61
2024/01/26 07:20:15;;;;;;;8.90;5.95;;;10.60;99.90;;;;;;5068584;28;20119;-62
2024/01/26 07:22:42;;;;;;;6.88;5.05;;;10.70;99.90;;;;;;5063630;28;20372;-62
2024/01/26 07:25:18;;;;;;;9.98;6.15;;;10.80;99.90;;;;;;5058606;28;20210;-62
2024/01/26 07:27:48;;;;;;;6.47;5.10;;;10.60;99.90;;;;;;5057386;28;20166;-62
2024/01/26 07:30:17;;;;;;;9.15;5.22;;;10.70;99.90;;;;;;5071547;28;20143;-61
2024/01/26 07:32:43;;;;;;;6.47;5.22;;;10.80;99.90;;;;;;5057596;28;20441;-62
2024/01/26 07:35:10;;;;;;;7.72;5.28;;;10.80;99.90;;;;;;5054843;28;20040;-61
2024/01/26 07:37:40;;;;;;;6.85;5.25;;;10.60;99.90;;;;;;5070949;28;20479;-61
2024/01/26 07:40:08;;;;;;;7.45;5.20;;;10.60;99.90;;;;;;5068000;28;20049;-62
2024/01/26 07:42:35;;;;;;;10.10;5.47;;;11.10;99.90;;;;;;5051574;28;20044;-62
2024/01/26 07:45:01;;;;;;;7.10;5.28;;;11.00;99.90;;;;;;5053299;28;20445;-61
2024/01/26 07:47:28;;;;;;;7.53;5.45;;;11.00;99.90;;;;;;5070606;28;20075;-62
2024/01/26 07:49:54;;;;;;;7.30;5.70;;;10.60;99.90;;;;;;5069073;28;20056;-64
2024/01/26 07:52:21;;;;;;;6.53;5.32;;;10.60;99.90;;;;;;5068781;28;20123;-62
2024/01/26 07:54:53;;;;;;;8.88;6.55;;;10.60;99.90;;;;;;5067085;28;20071;-62
2024/01/26 07:57:19;;;;;;;7.43;5.97;;;11.00;99.90;;;;;;5064539;28;20059;-62
2024/01/26 07:59:45;;;;;;;8.77;6.70;;;10.80;99.90;;;;;;5051691;28;20060;-62
2024/01/26 08:02:11;;;;;;;9.55;6.55;;;11.10;99.90;;;;;;5068315;28;20052;-63
2024/01/26 08:04:39;;;;;;;9.05;6.88;;;10.90;99.90;;;;;;5069494;28;20060;-62
2024/01/26 08:07:08;;;;;;;10.18;8.63;;;11.00;99.90;;;;;;5050347;28;20414;-64
2024/01/26 08:09:35;;;;;;;10.82;6.55;;;10.80;99.90;;;;;;5049141;28;20064;-61
2024/01/26 08:12:04;;;;;;;9.43;7.25;;;10.70;99.90;;;;;;5050759;28;20056;-62
2024/01/26 08:14:32;;;;;;;9.82;8.18;;;10.70;99.90;;;;;;5049727;28;20053;-62
2024/01/26 08:16:59;;;;;;;10.32;7.93;;;10.70;99.90;;;;;;5069586;28;20052;-63
2024/01/26 08:19:25;;;;;;;10.63;7.93;;;10.70;99.90;;;;;;5068301;28;20056;-61
2024/01/26 08:21:51;;;;;;;10.25;8.18;;;11.20;99.90;;;;;;5068494;28;20048;-61
2024/01/26 08:24:17;;;;;;;10.40;8.10;;;10.80;99.90;;;;;;5069966;28;20056;-63
2024/01/26 08:26:44;;;;;;;11.35;9.63;;;10.80;99.90;;;;;;5053194;28;20151;-62
2024/01/26 08:29:10;;;;;;;10.63;8.55;;;11.00;99.90;;;;;;5049977;28;20053;-62
2024/01/26 08:31:37;;;;;;;13.88;9.63;;;11.40;99.90;;;;;;5055651;28;20052;-63
2024/01/26 08:34:03;;;;;;;14.50;10.30;;;11.30;99.90;;;;;;5070169;28;20048;-62
2024/01/26 08:36:29;;;;;;;12.68;9.88;;;10.90;99.90;;;;;;5069264;28;20135;-61
2024/01/26 08:38:56;;;;;;;13.60;9.63;;;11.00;99.90;;;;;;5069677;28;20752;-62
2024/01/26 08:41:22;;;;;;;14.57;10.77;;;11.30;99.90;;;;;;5070587;28;20474;-61
2024/01/26 08:43:49;;;;;;;14.35;10.25;;;11.00;99.90;;;;;;5070597;28;20049;-62
2024/01/26 08:46:15;;;;;;;15.57;10.63;;;11.10;99.90;;;;;;5068531;28;20409;-62
2024/01/26 08:48:41;;;;;;;15.32;11.80;;;11.40;99.90;;;;;;5069730;28;20106;-63
2024/01/26 08:51:08;;;;;;;16.17;12.05;;;11.50;99.90;;;;;;5068629;28;20448;-62
2024/01/26 08:53:34;;;;;;;18.85;12.80;;;11.50;99.90;;;;;;5070241;28;20052;-62
2024/01/26 08:56:05;;;;;;;16.92;11.27;;;11.40;99.90;;;;;;5059148;28;20056;-61
2024/01/26 08:58:31;;;;;;;16.45;11.13;;;11.00;99.90;;;;;;5050101;28;20049;-61
2024/01/26 09:00:58;;;;;;;15.18;12.32;;;11.10;99.90;;;;;;5050187;28;20059;-63
2024/01/26 09:03:24;;;;;;;15.25;11.10;;;11.20;99.90;;;;;;5050163;28;20052;-63
2024/01/26 09:05:50;;;;;;;15.00;10.38;;;11.60;99.90;;;;;;5059354;28;20051;-62
2024/01/26 09:08:16;;;;;;;14.25;9.73;;;11.50;99.90;;;;;;5072048;28;20063;-61
2024/01/26 09:10:43;;;;;;;13.23;8.50;;;11.00;99.90;;;;;;5073656;28;20044;-61
2024/01/26 09:13:09;;;;;;;11.80;7.13;;;11.50;99.90;;;;;;5073420;28;20090;-62
2024/01/26 09:15:35;;;;;;;15.15;7.13;;;11.30;99.90;;;;;;5065851;28;20041;-64
2024/01/26 09:18:02;;;;;;;9.88;5.00;;;10.90;99.90;;;;;;5052953;28;20053;-63
2024/01/26 09:20:28;;;;;;;7.53;3.38;;;11.00;99.90;;;;;;5053466;28;20095;-62
2024/01/26 09:22:55;;;;;;;5.60;2.13;;;11.20;99.90;;;;;;5053616;28;20068;-62
2024/01/26 09:25:21;;;;;;;2.92;1.50;;;10.10;99.90;;;;;;5058238;28;20074;-63
2024/01/26 09:27:47;;;;;;;3.83;1.63;;;9.30;99.90;;;;;;5073455;28;20044;-65
2024/01/26 09:30:14;;;;;;;6.47;2.17;;;9.30;99.90;;;;;;5071377;28;20174;-63
2024/01/26 09:32:40;;;;;;;4.28;1.60;;;8.90;99.90;;;;;;5070281;28;20453;-63
2024/01/26 09:35:09;;;;;;;4.90;1.48;;;8.60;99.90;;;;;;5070073;28;20045;-63
2024/01/26 09:37:36;;;;;;;5.60;1.63;;;8.50;99.90;;;;;;5052009;28;20057;-63
2024/01/26 09:40:03;;;;;;;3.90;1.40;;;8.80;99.90;;;;;;5065952;28;20091;-61
2024/01/26 09:42:29;;;;;;;4.65;1.30;;;8.50;99.90;;;;;;5071625;28;20041;-62
2024/01/26 09:44:56;;;;;;;6.22;1.75;;;8.40;99.90;;;;;;5072212;28;20066;-62
2024/01/26 09:47:25;;;;;;;6.00;1.48;;;8.90;99.90;;;;;;5072884;28;20049;-62
2024/01/26 09:49:56;;;;;;;6.95;1.90;;;8.90;99.90;;;;;;5072504;28;20103;-61
2024/01/26 09:52:23;;;;;;;5.13;1.33;;;9.00;99.90;;;;;;5072539;28;20049;-61
2024/01/26 09:54:51;;;;;;;6.55;1.40;;;8.80;99.90;;;;;;5068292;28;20080;-62
2024/01/26 09:57:20;;;;;;;7.00;1.80;;;8.80;99.90;;;;;;5070522;28;20731;-63
2024/01/26 09:59:50;;;;;;;5.93;1.45;;;8.90;99.90;;;;;;5072329;28;20440;-63
2024/01/26 10:02:21;;;;;;;4.00;1.40;;;9.00;99.90;;;;;;5070689;28;20508;-61
2024/01/26 10:04:48;;;;;;;5.65;1.67;;;8.90;99.90;;;;;;5072234;28;20563;-64
2024/01/26 10:07:15;;;;;;;8.48;1.60;;;8.80;99.90;;;;;;5064816;28;20041;-60
2024/01/26 10:09:42;;;;;;;8.70;1.83;;;8.90;99.90;;;;;;5070612;28;20090;-62
2024/01/26 10:12:10;;;;;;;11.88;2.92;;;8.90;99.90;;;;;;5054431;28;20052;-63
2024/01/26 10:14:37;;;;;;;9.52;2.58;;;8.90;99.90;;;;;;5071909;28;20059;-62
2024/01/26 10:17:05;;;;;;;9.80;2.50;;;9.10;99.90;;;;;;5071005;28;20052;-64
2024/01/26 10:19:34;;;;;;;13.70;2.33;;;8.90;99.90;;;;;;5053518;28;20358;-64
2024/01/26 10:22:00;;;;;;;9.10;2.05;;;9.10;99.90;;;;;;5072454;28;20072;-63
2024/01/26 10:24:27;;;;;;;10.80;3.20;;;9.10;99.90;;;;;;5071502;28;20052;-62
2024/01/26 10:26:54;;;;;;;10.20;2.55;;;8.90;99.90;;;;;;5053565;28;20045;-62
2024/01/26 10:29:23;;;;;;;12.23;2.30;;;9.10;99.90;;;;;;5051846;28;20466;-62
2024/01/26 10:31:50;;;;;;;10.40;2.45;;;8.90;99.90;;;;;;5057591;28;20068;-62
2024/01/26 10:34:17;;;;;;;14.40;3.22;;;8.90;99.90;;;;;;5071360;28;20055;-60
2024/01/26 10:36:46;;;;;;;13.63;2.85;;;9.10;99.90;;;;;;5071008;28;20051;-63
2024/01/26 10:39:23;;;;;;;12.90;2.53;;;9.00;99.90;;;;;;5071432;28;20044;-61
2024/01/26 10:41:54;;;;;;;13.73;3.13;;;9.20;99.90;;;;;;5072244;28;20064;-63
2024/01/26 10:44:22;;;;;;;9.85;2.80;;;9.20;99.90;;;;;;5071103;28;20044;-63
2024/01/26 10:46:49;;;;;;;9.43;2.55;;;9.20;99.90;;;;;;5069616;28;20048;-63
2024/01/26 10:49:16;;;;;;;8.05;2.95;;;9.10;99.90;;;;;;5071398;28;20044;-61
2024/01/26 10:51:43;;;;;;;13.18;2.92;;;9.00;99.90;;;;;;5070452;28;20041;-62
2024/01/26 10:54:12;;;;;;;14.15;2.80;;;9.10;99.90;;;;;;5070707;28;20075;-64
2024/01/26 10:56:39;;;;;;;12.23;3.05;;;9.10;99.90;;;;;;5070345;28;20041;-62
2024/01/26 10:59:10;;;;;;;12.65;2.65;;;8.90;99.90;;;;;;5062394;28;20064;-64
2024/01/26 11:01:39;;;;;;;18.13;3.22;;;9.10;99.90;;;;;;5069529;28;20040;-62
2024/01/26 11:04:09;;;;;;;11.20;3.17;;;8.90;99.90;;;;;;5069982;28;20032;-62
2024/01/26 11:06:39;;;;;;;10.40;2.97;;;9.00;99.90;;;;;;5062043;28;20176;-62
2024/01/26 11:09:08;;;;;;;12.95;2.75;;;8.80;99.90;;;;;;5070829;28;20071;-64
2024/01/26 11:11:38;;;;;;;16.10;4.03;;;9.00;99.90;;;;;;5070347;28;20059;-62
2024/01/26 11:14:06;;;;;;;13.55;2.83;;;8.80;99.90;;;;;;5053023;28;20056;-61
2024/01/26 11:16:40;;;;;;;12.35;2.72;;;8.90;99.90;;;;;;5069163;28;20488;-61
2024/01/26 11:19:08;;;;;;;14.82;3.22;;;9.00;99.90;;;;;;5070522;28;20135;-63
2024/01/26 11:21:39;;;;;;;13.43;3.22;;;8.80;99.90;;;;;;5069145;28;20469;-61
2024/01/26 11:24:17;;;;;;;16.08;2.90;;;8.90;99.90;;;;;;5071561;28;20044;-64
2024/01/26 11:26:59;;;;;;;11.38;3.20;;;9.00;99.90;;;;;;5069601;28;20095;-60
2024/01/26 11:29:31;;;;;;;10.68;2.83;;;8.90;99.90;;;;;;5071005;28;20052;-63
2024/01/26 11:31:59;;;;;;;16.95;3.45;;;8.90;99.90;;;;;;5052961;28;20063;-62
2024/01/26 11:34:56;;;;;;;10.43;3.00;;;8.80;99.90;;;;;;5069441;28;20052;-61
2024/01/26 11:37:27;;;;;;;12.77;3.08;;;8.80;99.90;;;;;;5051480;28;20051;-61
2024/01/26 11:39:55;;;;;;;15.15;3.75;;;8.80;99.90;;;;;;5050969;28;20064;-61
2024/01/26 11:42:23;;;;;;;16.50;3.45;;;8.60;99.90;;;;;;5050915;28;20378;-62
2024/01/26 11:45:12;;;;;;;13.90;3.92;;;8.80;99.90;;;;;;5051066;28;20052;-62
2024/01/26 11:47:42;;;;;;;16.85;3.42;;;8.70;99.90;;;;;;5071181;28;20059;-63
2024/01/26 11:50:09;;;;;;;21.40;3.45;;;8.60;99.90;;;;;;5071291;28;20721;-62
2024/01/26 11:52:36;;;;;;;17.08;3.30;;;8.70;99.90;;;;;;5070263;28;20076;-62
2024/01/26 11:55:05;;;;;;;12.15;3.35;;;8.70;99.90;;;;;;5069146;28;20056;-62
2024/01/26 11:57:32;;;;;;;12.88;3.15;;;8.70;99.90;;;;;;5071167;28;20064;-60
2024/01/26 11:59:59;;;;;;;19.02;3.50;;;8.50;99.90;;;;;;5069471;28;20059;-61
2024/01/26 12:02:26;;;;;;;17.95;3.83;;;8.50;99.90;;;;;;5069553;28;20061;-62
2024/01/26 12:04:52;;;;;;;12.70;3.00;;;8.70;99.90;;;;;;5070426;28;20045;-63
2024/01/26 12:07:19;;;;;;;14.00;3.17;;;8.60;99.90;;;;;;5069916;28;20119;-62
2024/01/26 12:09:45;;;;;;;17.83;3.58;;;8.50;99.90;;;;;;5069776;28;20130;-62
2024/01/26 12:12:16;;;;;;;11.15;2.88;;;8.60;99.90;;;;;;5071026;28;20050;-61
2024/01/26 12:14:42;;;;;;;12.73;3.10;;;8.60;99.90;;;;;;5069229;28;20063;-63
2024/01/26 12:17:10;;;;;;;15.20;3.17;;;8.50;99.90;;;;;;5068614;28;20131;-62
2024/01/26 12:19:38;;;;;;;14.18;2.88;;;8.50;99.90;;;;;;5075257;28;20064;-62
2024/01/26 12:22:09;;;;;;;8.77;2.92;;;8.50;99.90;;;;;;5069337;28;20060;-62
2024/01/26 12:24:35;;;;;;;14.48;3.10;;;8.40;99.90;;;;;;5071136;28;20044;-62
2024/01/26 12:27:03;;;;;;;15.90;3.30;;;8.50;99.90;;;;;;5069652;28;20059;-63
2024/01/26 12:29:30;;;;;;;15.57;3.17;;;8.50;99.90;;;;;;5069170;28;20048;-65
2024/01/26 12:32:04;;;;;;;12.63;2.42;;;8.50;99.90;;;;;;5069864;28;20057;-62
2024/01/26 12:34:33;;;;;;;13.25;2.88;;;8.50;99.90;;;;;;5068436;28;20059;-62
2024/01/26 12:37:00;;;;;;;20.90;3.20;;;8.30;99.90;;;;;;5069253;28;20059;-61
2024/01/26 12:39:28;;;;;;;15.98;3.85;;;8.30;99.90;;;;;;5067455;28;20055;-62